MIE weather

Delaware County Johnson Field
Muncie, Indiana, United States

Public forecast

Using degrees Fahrenheit for public forecast. Weather courtesy of forecast.io.

Current aviation weather report (METAR) for Delaware County Johnson Field

Retrieved 2020/05/28 18:53 UTC (23 minutes ago):

KMIE 281853Z 23010G20KT 10SM FEW030 26/17 A2992 RMK AO2 RAE1756 SLP120 P0000 T02560172

Closest aviation forecast (TAF) to Delaware County Johnson Field

Closest forecast is Grissom Air Reserve Base, 42.3 nm (78.3 km) NW. Retrieved 2020/05/28 19:06 UTC (10 minutes ago):

TAF KGUS 281900Z 2819/3001 24009KT 9999 FEW045 QNH2985INS BECMG 2822/2823 20010G15KT 9999 SCT040 QNH2986INS BECMG 2823/2824 20006KT 9999 BKN025 QNH2986INS TEMPO 2901/2904 8000 -SHRA BKN015 BECMG 2908/2909 22009KT 8000 -SHRA BKN009 QNH2987INS BECMG 2914/2915 34010G15KT 9999 NSW BKN015 QNH2995INS BECMG 2920/2921 33009KT 9999 SCT040 QNH2995INS TX25/2821Z TN15/2917Z